sensor_id;sensor_type;location;lat;lon;timestamp;temperature;humidity
28171;DHT22;15458;53.346;-1.688;2022-09-06T00:00:33;15.50;99.90
28171;DHT22;15458;53.346;-1.688;2022-09-06T00:02:59;15.50;99.90
28171;DHT22;15458;53.346;-1.688;2022-09-06T00:05:27;15.50;99.90
28171;DHT22;15458;53.346;-1.688;2022-09-06T00:07:53;15.50;99.90
28171;DHT22;15458;53.346;-1.688;2022-09-06T00:10:19;15.50;99.90
28171;DHT22;15458;53.346;-1.688;2022-09-06T00:12:45;15.50;99.90
28171;DHT22;15458;53.346;-1.688;2022-09-06T00:15:12;15.40;99.90
28171;DHT22;15458;53.346;-1.688;2022-09-06T00:17:38;15.40;99.90
28171;DHT22;15458;53.346;-1.688;2022-09-06T00:20:04;15.40;99.90
28171;DHT22;15458;53.346;-1.688;2022-09-06T00:22:30;15.40;99.90
28171;DHT22;15458;53.346;-1.688;2022-09-06T00:24:55;15.40;99.90
28171;DHT22;15458;53.346;-1.688;2022-09-06T00:27:21;15.40;99.90
28171;DHT22;15458;53.346;-1.688;2022-09-06T00:29:47;15.30;99.90
28171;DHT22;15458;53.346;-1.688;2022-09-06T00:32:12;15.30;99.90
28171;DHT22;15458;53.346;-1.688;2022-09-06T00:34:38;15.30;99.90
28171;DHT22;15458;53.346;-1.688;2022-09-06T00:37:04;15.30;99.90
28171;DHT22;15458;53.346;-1.688;2022-09-06T00:39:29;15.30;99.90
28171;DHT22;15458;53.346;-1.688;2022-09-06T00:41:55;15.30;99.90
28171;DHT22;15458;53.346;-1.688;2022-09-06T00:44:21;15.30;99.90
28171;DHT22;15458;53.346;-1.688;2022-09-06T00:46:48;15.30;99.90
28171;DHT22;15458;53.346;-1.688;2022-09-06T00:49:24;15.30;99.90
28171;DHT22;15458;53.346;-1.688;2022-09-06T00:52:16;15.30;99.90
28171;DHT22;15458;53.346;-1.688;2022-09-06T00:54:45;15.30;99.90
28171;DHT22;15458;53.346;-1.688;2022-09-06T00:57:12;15.40;99.90
28171;DHT22;15458;53.346;-1.688;2022-09-06T00:59:39;15.40;99.90
28171;DHT22;15458;53.346;-1.688;2022-09-06T01:02:05;15.40;99.90
28171;DHT22;15458;53.346;-1.688;2022-09-06T01:04:34;15.40;99.90
28171;DHT22;15458;53.346;-1.688;2022-09-06T01:13:30;15.30;99.90
28171;DHT22;15458;53.346;-1.688;2022-09-06T01:20:36;15.30;99.90
28171;DHT22;15458;53.346;-1.688;2022-09-06T01:28:57;15.20;99.90
28171;DHT22;15458;53.346;-1.688;2022-09-06T01:31:45;15.20;99.90
28171;DHT22;15458;53.346;-1.688;2022-09-06T01:34:27;15.10;99.90
28171;DHT22;15458;53.346;-1.688;2022-09-06T01:37:01;15.10;99.90
28171;DHT22;15458;53.346;-1.688;2022-09-06T01:39:35;15.00;99.90
28171;DHT22;15458;53.346;-1.688;2022-09-06T01:42:10;15.00;99.90
28171;DHT22;15458;53.346;-1.688;2022-09-06T01:44:38;14.90;99.90
28171;DHT22;15458;53.346;-1.688;2022-09-06T02:00:27;14.70;99.90
28171;DHT22;15458;53.346;-1.688;2022-09-06T02:05:50;14.70;99.90
28171;DHT22;15458;53.346;-1.688;2022-09-06T02:08:28;14.70;99.90
28171;DHT22;15458;53.346;-1.688;2022-09-06T02:11:02;14.70;99.90
28171;DHT22;15458;53.346;-1.688;2022-09-06T02:16:09;14.60;99.90
28171;DHT22;15458;53.346;-1.688;2022-09-06T02:18:51;14.60;99.90
28171;DHT22;15458;53.346;-1.688;2022-09-06T02:21:23;14.60;99.90
28171;DHT22;15458;53.346;-1.688;2022-09-06T02:23:52;14.60;99.90
28171;DHT22;15458;53.346;-1.688;2022-09-06T02:26:23;14.50;99.90
28171;DHT22;15458;53.346;-1.688;2022-09-06T02:28:50;14.50;99.90
28171;DHT22;15458;53.346;-1.688;2022-09-06T02:31:22;14.50;99.90
28171;DHT22;15458;53.346;-1.688;2022-09-06T02:33:50;14.50;99.90
28171;DHT22;15458;53.346;-1.688;2022-09-06T02:36:16;14.50;99.90
28171;DHT22;15458;53.346;-1.688;2022-09-06T02:38:43;14.50;99.90
28171;DHT22;15458;53.346;-1.688;2022-09-06T02:41:12;14.40;99.90
28171;DHT22;15458;53.346;-1.688;2022-09-06T02:43:41;14.40;99.90
28171;DHT22;15458;53.346;-1.688;2022-09-06T02:46:07;14.40;99.90
28171;DHT22;15458;53.346;-1.688;2022-09-06T02:48:32;14.30;99.90
28171;DHT22;15458;53.346;-1.688;2022-09-06T02:51:02;14.40;99.90
28171;DHT22;15458;53.346;-1.688;2022-09-06T02:53:28;14.40;99.90
28171;DHT22;15458;53.346;-1.688;2022-09-06T02:55:54;14.40;99.90
28171;DHT22;15458;53.346;-1.688;2022-09-06T02:58:21;14.50;99.90
28171;DHT22;15458;53.346;-1.688;2022-09-06T03:00:48;14.50;99.90
28171;DHT22;15458;53.346;-1.688;2022-09-06T03:03:13;14.50;99.90
28171;DHT22;15458;53.346;-1.688;2022-09-06T03:05:40;14.50;99.90
28171;DHT22;15458;53.346;-1.688;2022-09-06T03:08:06;14.50;99.90
28171;DHT22;15458;53.346;-1.688;2022-09-06T03:10:31;14.50;99.90
28171;DHT22;15458;53.346;-1.688;2022-09-06T03:12:57;14.50;99.90
28171;DHT22;15458;53.346;-1.688;2022-09-06T03:15:23;14.40;99.90
28171;DHT22;15458;53.346;-1.688;2022-09-06T03:17:49;14.50;99.90
28171;DHT22;15458;53.346;-1.688;2022-09-06T03:20:14;14.50;99.90
28171;DHT22;15458;53.346;-1.688;2022-09-06T03:22:40;14.50;99.90
28171;DHT22;15458;53.346;-1.688;2022-09-06T03:25:07;14.40;99.90
28171;DHT22;15458;53.346;-1.688;2022-09-06T03:27:33;14.50;99.90
28171;DHT22;15458;53.346;-1.688;2022-09-06T03:29:59;14.50;99.90
28171;DHT22;15458;53.346;-1.688;2022-09-06T03:32:25;14.50;99.90
28171;DHT22;15458;53.346;-1.688;2022-09-06T03:34:50;14.40;99.90
28171;DHT22;15458;53.346;-1.688;2022-09-06T03:37:17;14.40;99.90
28171;DHT22;15458;53.346;-1.688;2022-09-06T03:39:44;14.50;99.90
28171;DHT22;15458;53.346;-1.688;2022-09-06T03:42:09;14.50;99.90
28171;DHT22;15458;53.346;-1.688;2022-09-06T03:44:35;14.50;99.90
28171;DHT22;15458;53.346;-1.688;2022-09-06T03:47:01;14.50;99.90
28171;DHT22;15458;53.346;-1.688;2022-09-06T03:49:27;14.50;99.90
28171;DHT22;15458;53.346;-1.688;2022-09-06T03:51:52;14.60;99.90
28171;DHT22;15458;53.346;-1.688;2022-09-06T03:54:18;14.60;99.90
28171;DHT22;15458;53.346;-1.688;2022-09-06T03:56:44;14.60;99.90
28171;DHT22;15458;53.346;-1.688;2022-09-06T03:59:09;14.70;99.90
28171;DHT22;15458;53.346;-1.688;2022-09-06T04:01:35;14.70;99.90
28171;DHT22;15458;53.346;-1.688;2022-09-06T04:04:01;14.70;99.90
28171;DHT22;15458;53.346;-1.688;2022-09-06T04:06:27;14.70;99.90
28171;DHT22;15458;53.346;-1.688;2022-09-06T04:08:53;14.80;99.90
28171;DHT22;15458;53.346;-1.688;2022-09-06T04:11:19;14.80;99.90
28171;DHT22;15458;53.346;-1.688;2022-09-06T04:13:44;14.80;99.90
28171;DHT22;15458;53.346;-1.688;2022-09-06T04:16:10;14.80;99.90
28171;DHT22;15458;53.346;-1.688;2022-09-06T04:18:36;14.80;99.90
28171;DHT22;15458;53.346;-1.688;2022-09-06T04:21:02;14.90;99.90
28171;DHT22;15458;53.346;-1.688;2022-09-06T04:23:28;14.90;99.90
28171;DHT22;15458;53.346;-1.688;2022-09-06T04:25:56;14.90;99.90
28171;DHT22;15458;53.346;-1.688;2022-09-06T04:28:22;14.90;99.90
28171;DHT22;15458;53.346;-1.688;2022-09-06T04:31:00;14.90;99.90
28171;DHT22;15458;53.346;-1.688;2022-09-06T04:33:27;14.90;99.90
28171;DHT22;15458;53.346;-1.688;2022-09-06T04:35:58;14.90;99.90
28171;DHT22;15458;53.346;-1.688;2022-09-06T04:38:25;15.00;99.90
28171;DHT22;15458;53.346;-1.688;2022-09-06T04:40:51;14.90;99.90
28171;DHT22;15458;53.346;-1.688;2022-09-06T04:43:18;14.90;99.90
28171;DHT22;15458;53.346;-1.688;2022-09-06T04:45:44;14.90;99.90
28171;DHT22;15458;53.346;-1.688;2022-09-06T04:48:10;14.90;99.90
28171;DHT22;15458;53.346;-1.688;2022-09-06T04:50:36;15.00;99.90
28171;DHT22;15458;53.346;-1.688;2022-09-06T04:53:02;15.00;99.90
28171;DHT22;15458;53.346;-1.688;2022-09-06T04:55:28;15.00;99.90
28171;DHT22;15458;53.346;-1.688;2022-09-06T04:57:56;15.00;99.90
28171;DHT22;15458;53.346;-1.688;2022-09-06T05:00:27;15.00;99.90
28171;DHT22;15458;53.346;-1.688;2022-09-06T05:02:53;14.90;99.90
28171;DHT22;15458;53.346;-1.688;2022-09-06T05:05:19;14.90;99.90
28171;DHT22;15458;53.346;-1.688;2022-09-06T05:07:44;15.00;99.90
28171;DHT22;15458;53.346;-1.688;2022-09-06T05:10:10;15.00;99.90
28171;DHT22;15458;53.346;-1.688;2022-09-06T05:12:36;15.00;99.90
28171;DHT22;15458;53.346;-1.688;2022-09-06T05:15:01;15.00;99.90
28171;DHT22;15458;53.346;-1.688;2022-09-06T05:17:27;15.00;99.90
28171;DHT22;15458;53.346;-1.688;2022-09-06T05:19:53;15.00;99.90
28171;DHT22;15458;53.346;-1.688;2022-09-06T05:22:18;15.00;99.90
28171;DHT22;15458;53.346;-1.688;2022-09-06T05:24:44;15.00;99.90
28171;DHT22;15458;53.346;-1.688;2022-09-06T05:27:10;15.10;99.90
28171;DHT22;15458;53.346;-1.688;2022-09-06T05:29:37;15.10;99.90
28171;DHT22;15458;53.346;-1.688;2022-09-06T05:32:03;15.10;99.90
28171;DHT22;15458;53.346;-1.688;2022-09-06T05:34:29;15.10;99.90
28171;DHT22;15458;53.346;-1.688;2022-09-06T05:36:54;15.10;99.90
28171;DHT22;15458;53.346;-1.688;2022-09-06T05:39:20;15.10;99.90
28171;DHT22;15458;53.346;-1.688;2022-09-06T05:41:46;15.10;99.90
28171;DHT22;15458;53.346;-1.688;2022-09-06T05:44:12;15.20;99.90
28171;DHT22;15458;53.346;-1.688;2022-09-06T05:46:43;15.20;99.90
28171;DHT22;15458;53.346;-1.688;2022-09-06T05:49:09;15.20;99.90
28171;DHT22;15458;53.346;-1.688;2022-09-06T05:51:35;15.20;99.90
28171;DHT22;15458;53.346;-1.688;2022-09-06T05:54:01;15.30;99.90
28171;DHT22;15458;53.346;-1.688;2022-09-06T05:56:26;15.30;99.90
28171;DHT22;15458;53.346;-1.688;2022-09-06T05:58:52;15.30;99.90
28171;DHT22;15458;53.346;-1.688;2022-09-06T06:01:22;15.30;99.90
28171;DHT22;15458;53.346;-1.688;2022-09-06T06:03:53;15.30;99.90
28171;DHT22;15458;53.346;-1.688;2022-09-06T06:06:20;15.30;99.90
28171;DHT22;15458;53.346;-1.688;2022-09-06T06:08:46;15.30;99.90
28171;DHT22;15458;53.346;-1.688;2022-09-06T06:11:12;15.30;99.90
28171;DHT22;15458;53.346;-1.688;2022-09-06T06:13:38;15.30;99.90
28171;DHT22;15458;53.346;-1.688;2022-09-06T06:16:09;15.30;99.90
28171;DHT22;15458;53.346;-1.688;2022-09-06T06:18:36;15.30;99.90
28171;DHT22;15458;53.346;-1.688;2022-09-06T06:21:22;15.30;99.90
28171;DHT22;15458;53.346;-1.688;2022-09-06T06:23:51;15.30;99.90
28171;DHT22;15458;53.346;-1.688;2022-09-06T06:26:17;15.30;99.90
28171;DHT22;15458;53.346;-1.688;2022-09-06T06:28:43;15.30;99.90
28171;DHT22;15458;53.346;-1.688;2022-09-06T06:31:09;15.40;99.90
28171;DHT22;15458;53.346;-1.688;2022-09-06T06:33:37;15.40;99.90
28171;DHT22;15458;53.346;-1.688;2022-09-06T06:38:36;15.40;99.90
28171;DHT22;15458;53.346;-1.688;2022-09-06T06:41:03;15.40;99.90
28171;DHT22;15458;53.346;-1.688;2022-09-06T06:43:30;15.40;99.90
28171;DHT22;15458;53.346;-1.688;2022-09-06T06:46:14;15.40;99.90
28171;DHT22;15458;53.346;-1.688;2022-09-06T06:48:40;15.40;99.90
28171;DHT22;15458;53.346;-1.688;2022-09-06T06:51:12;15.30;99.90
28171;DHT22;15458;53.346;-1.688;2022-09-06T06:53:38;15.40;99.90
28171;DHT22;15458;53.346;-1.688;2022-09-06T06:56:20;15.30;99.90
28171;DHT22;15458;53.346;-1.688;2022-09-06T06:58:48;15.30;99.90
28171;DHT22;15458;53.346;-1.688;2022-09-06T07:01:15;15.30;99.90
28171;DHT22;15458;53.346;-1.688;2022-09-06T07:03:41;15.30;99.90
28171;DHT22;15458;53.346;-1.688;2022-09-06T07:06:06;15.30;99.90
28171;DHT22;15458;53.346;-1.688;2022-09-06T07:08:32;15.30;99.90
28171;DHT22;15458;53.346;-1.688;2022-09-06T07:10:58;15.30;99.90
28171;DHT22;15458;53.346;-1.688;2022-09-06T07:13:24;15.40;99.90
28171;DHT22;15458;53.346;-1.688;2022-09-06T07:15:50;15.40;99.90
28171;DHT22;15458;53.346;-1.688;2022-09-06T07:18:16;15.40;99.90
28171;DHT22;15458;53.346;-1.688;2022-09-06T07:20:42;15.50;99.90
28171;DHT22;15458;53.346;-1.688;2022-09-06T07:23:08;15.50;99.90
28171;DHT22;15458;53.346;-1.688;2022-09-06T07:25:34;15.60;99.90
28171;DHT22;15458;53.346;-1.688;2022-09-06T07:28:02;15.60;99.90
28171;DHT22;15458;53.346;-1.688;2022-09-06T07:30:35;15.60;99.90
28171;DHT22;15458;53.346;-1.688;2022-09-06T07:33:02;15.70;99.90
28171;DHT22;15458;53.346;-1.688;2022-09-06T07:35:33;15.70;99.90
28171;DHT22;15458;53.346;-1.688;2022-09-06T07:38:01;15.80;99.90
28171;DHT22;15458;53.346;-1.688;2022-09-06T07:40:29;15.80;99.90
28171;DHT22;15458;53.346;-1.688;2022-09-06T07:42:58;15.80;99.90
28171;DHT22;15458;53.346;-1.688;2022-09-06T07:45:25;15.90;99.90
28171;DHT22;15458;53.346;-1.688;2022-09-06T07:47:57;16.00;99.90
28171;DHT22;15458;53.346;-1.688;2022-09-06T07:50:27;16.00;99.90
28171;DHT22;15458;53.346;-1.688;2022-09-06T07:53:05;16.00;99.90
28171;DHT22;15458;53.346;-1.688;2022-09-06T07:55:30;16.10;99.90
28171;DHT22;15458;53.346;-1.688;2022-09-06T07:57:56;16.20;99.90
28171;DHT22;15458;53.346;-1.688;2022-09-06T08:00:22;16.20;99.90
28171;DHT22;15458;53.346;-1.688;2022-09-06T08:02:48;16.30;99.90
28171;DHT22;15458;53.346;-1.688;2022-09-06T08:05:14;16.30;99.90
28171;DHT22;15458;53.346;-1.688;2022-09-06T08:07:39;16.30;99.90
28171;DHT22;15458;53.346;-1.688;2022-09-06T08:10:06;16.30;99.90
28171;DHT22;15458;53.346;-1.688;2022-09-06T08:12:32;16.30;99.90
28171;DHT22;15458;53.346;-1.688;2022-09-06T08:14:57;16.40;99.90
28171;DHT22;15458;53.346;-1.688;2022-09-06T08:17:23;16.40;99.90
28171;DHT22;15458;53.346;-1.688;2022-09-06T08:19:49;16.50;99.90
28171;DHT22;15458;53.346;-1.688;2022-09-06T08:22:14;16.50;99.90
28171;DHT22;15458;53.346;-1.688;2022-09-06T08:24:40;16.50;99.90
28171;DHT22;15458;53.346;-1.688;2022-09-06T08:27:07;16.50;99.90
28171;DHT22;15458;53.346;-1.688;2022-09-06T08:29:34;16.60;99.90
28171;DHT22;15458;53.346;-1.688;2022-09-06T08:31:59;16.70;99.90
28171;DHT22;15458;53.346;-1.688;2022-09-06T08:34:25;16.70;99.90
28171;DHT22;15458;53.346;-1.688;2022-09-06T08:36:54;16.70;99.90
28171;DHT22;15458;53.346;-1.688;2022-09-06T08:39:20;16.80;99.90
28171;DHT22;15458;53.346;-1.688;2022-09-06T08:42:01;16.80;99.90
28171;DHT22;15458;53.346;-1.688;2022-09-06T08:44:51;16.70;99.90
28171;DHT22;15458;53.346;-1.688;2022-09-06T08:47:19;16.70;99.90
28171;DHT22;15458;53.346;-1.688;2022-09-06T08:58:04;16.60;99.90
28171;DHT22;15458;53.346;-1.688;2022-09-06T09:00:35;16.60;99.90
28171;DHT22;15458;53.346;-1.688;2022-09-06T09:03:25;16.60;99.90
28171;DHT22;15458;53.346;-1.688;2022-09-06T09:05:53;16.60;99.90
28171;DHT22;15458;53.346;-1.688;2022-09-06T09:08:26;16.60;99.90
28171;DHT22;15458;53.346;-1.688;2022-09-06T09:11:04;16.60;99.90
28171;DHT22;15458;53.346;-1.688;2022-09-06T09:16:52;16.60;99.90
28171;DHT22;15458;53.346;-1.688;2022-09-06T09:19:19;16.60;99.90
28171;DHT22;15458;53.346;-1.688;2022-09-06T09:21:45;16.60;99.90
28171;DHT22;15458;53.346;-1.688;2022-09-06T09:24:12;16.60;99.90
28171;DHT22;15458;53.346;-1.688;2022-09-06T09:27:06;16.60;99.90
28171;DHT22;15458;53.346;-1.688;2022-09-06T09:32:30;16.60;99.90
28171;DHT22;15458;53.346;-1.688;2022-09-06T09:37:44;16.60;99.90
28171;DHT22;15458;53.346;-1.688;2022-09-06T09:42:41;16.60;99.90
28171;DHT22;15458;53.346;-1.688;2022-09-06T09:45:37;16.50;99.90
28171;DHT22;15458;53.346;-1.688;2022-09-06T09:48:25;16.50;99.90
28171;DHT22;15458;53.346;-1.688;2022-09-06T09:50:52;16.50;99.90
28171;DHT22;15458;53.346;-1.688;2022-09-06T09:53:21;16.50;99.90
28171;DHT22;15458;53.346;-1.688;2022-09-06T09:55:53;16.50;99.90
28171;DHT22;15458;53.346;-1.688;2022-09-06T09:58:34;16.50;99.90
28171;DHT22;15458;53.346;-1.688;2022-09-06T10:03:40;16.50;99.90
28171;DHT22;15458;53.346;-1.688;2022-09-06T10:06:10;16.50;99.90
28171;DHT22;15458;53.346;-1.688;2022-09-06T10:08:39;16.50;99.90
28171;DHT22;15458;53.346;-1.688;2022-09-06T10:11:13;16.60;99.90
28171;DHT22;15458;53.346;-1.688;2022-09-06T10:13:39;16.70;99.90
28171;DHT22;15458;53.346;-1.688;2022-09-06T10:16:07;16.80;99.90
28171;DHT22;15458;53.346;-1.688;2022-09-06T10:18:36;16.90;99.90
28171;DHT22;15458;53.346;-1.688;2022-09-06T10:21:08;17.00;99.90
28171;DHT22;15458;53.346;-1.688;2022-09-06T10:32:06;17.20;99.90
28171;DHT22;15458;53.346;-1.688;2022-09-06T10:42:55;17.30;99.90
28171;DHT22;15458;53.346;-1.688;2022-09-06T10:48:32;17.30;99.90
28171;DHT22;15458;53.346;-1.688;2022-09-06T10:53:56;17.20;99.90
28171;DHT22;15458;53.346;-1.688;2022-09-06T10:59:20;17.10;99.90
28171;DHT22;15458;53.346;-1.688;2022-09-06T11:01:56;17.10;99.90
28171;DHT22;15458;53.346;-1.688;2022-09-06T11:04:37;17.10;99.90
28171;DHT22;15458;53.346;-1.688;2022-09-06T11:15:04;17.10;99.90
28171;DHT22;15458;53.346;-1.688;2022-09-06T11:26:09;17.40;99.90
28171;DHT22;15458;53.346;-1.688;2022-09-06T11:28:42;17.50;99.90
28171;DHT22;15458;53.346;-1.688;2022-09-06T11:31:20;17.50;99.90
28171;DHT22;15458;53.346;-1.688;2022-09-06T11:33:47;17.50;99.90
28171;DHT22;15458;53.346;-1.688;2022-09-06T11:36:44;17.70;99.90
28171;DHT22;15458;53.346;-1.688;2022-09-06T11:39:10;17.80;99.90
28171;DHT22;15458;53.346;-1.688;2022-09-06T11:41:38;18.00;99.90
28171;DHT22;15458;53.346;-1.688;2022-09-06T11:45:11;18.10;99.90
28171;DHT22;15458;53.346;-1.688;2022-09-06T11:49:33;18.40;99.90
28171;DHT22;15458;53.346;-1.688;2022-09-06T11:52:04;18.50;99.90
28171;DHT22;15458;53.346;-1.688;2022-09-06T11:54:48;18.60;99.90
28171;DHT22;15458;53.346;-1.688;2022-09-06T11:57:16;18.70;99.90
28171;DHT22;15458;53.346;-1.688;2022-09-06T12:02:36;18.80;99.90
28171;DHT22;15458;53.346;-1.688;2022-09-06T12:07:33;18.80;99.90
28171;DHT22;15458;53.346;-1.688;2022-09-06T12:16:09;18.50;99.90
28171;DHT22;15458;53.346;-1.688;2022-09-06T12:21:34;18.40;99.90
28171;DHT22;15458;53.346;-1.688;2022-09-06T12:24:00;18.30;99.90
28171;DHT22;15458;53.346;-1.688;2022-09-06T12:26:46;18.30;99.90
28171;DHT22;15458;53.346;-1.688;2022-09-06T12:29:14;18.20;99.90
28171;DHT22;15458;53.346;-1.688;2022-09-06T12:31:43;18.20;99.90
28171;DHT22;15458;53.346;-1.688;2022-09-06T12:34:16;18.10;99.90
28171;DHT22;15458;53.346;-1.688;2022-09-06T12:39:19;18.10;99.90
28171;DHT22;15458;53.346;-1.688;2022-09-06T12:41:49;18.10;99.90
28171;DHT22;15458;53.346;-1.688;2022-09-06T12:44:16;18.10;99.90
28171;DHT22;15458;53.346;-1.688;2022-09-06T12:46:48;18.10;99.90
28171;DHT22;15458;53.346;-1.688;2022-09-06T12:49:16;18.10;99.90
28171;DHT22;15458;53.346;-1.688;2022-09-06T12:51:42;18.10;99.90
28171;DHT22;15458;53.346;-1.688;2022-09-06T12:54:41;18.20;99.90
28171;DHT22;15458;53.346;-1.688;2022-09-06T12:57:20;18.40;99.90
28171;DHT22;15458;53.346;-1.688;2022-09-06T12:59:56;18.50;99.90
28171;DHT22;15458;53.346;-1.688;2022-09-06T13:05:02;18.70;99.90
28171;DHT22;15458;53.346;-1.688;2022-09-06T13:07:31;18.70;99.90
28171;DHT22;15458;53.346;-1.688;2022-09-06T13:10:02;18.80;99.90
28171;DHT22;15458;53.346;-1.688;2022-09-06T13:12:33;18.80;99.90
28171;DHT22;15458;53.346;-1.688;2022-09-06T13:15:23;18.90;99.90
28171;DHT22;15458;53.346;-1.688;2022-09-06T13:17:50;18.90;99.90
28171;DHT22;15458;53.346;-1.688;2022-09-06T13:20:26;18.90;99.90
28171;DHT22;15458;53.346;-1.688;2022-09-06T13:23:07;18.90;99.90
28171;DHT22;15458;53.346;-1.688;2022-09-06T13:25:37;19.10;99.90
28171;DHT22;15458;53.346;-1.688;2022-09-06T13:28:10;19.40;99.90
28171;DHT22;15458;53.346;-1.688;2022-09-06T13:30:40;19.80;99.90
28171;DHT22;15458;53.346;-1.688;2022-09-06T13:33:24;20.20;99.90
28171;DHT22;15458;53.346;-1.688;2022-09-06T13:36:04;20.60;99.90
28171;DHT22;15458;53.346;-1.688;2022-09-06T13:38:34;20.60;99.90
28171;DHT22;15458;53.346;-1.688;2022-09-06T13:41:03;20.70;99.90
28171;DHT22;15458;53.346;-1.688;2022-09-06T13:43:30;20.80;99.90
28171;DHT22;15458;53.346;-1.688;2022-09-06T13:46:05;21.00;99.90
28171;DHT22;15458;53.346;-1.688;2022-09-06T13:48:32;20.90;99.90
28171;DHT22;15458;53.346;-1.688;2022-09-06T13:50:59;21.00;99.90
28171;DHT22;15458;53.346;-1.688;2022-09-06T13:53:25;21.00;99.90
28171;DHT22;15458;53.346;-1.688;2022-09-06T13:55:52;21.00;99.90
28171;DHT22;15458;53.346;-1.688;2022-09-06T13:58:21;20.90;99.90
28171;DHT22;15458;53.346;-1.688;2022-09-06T14:00:47;20.90;99.90
28171;DHT22;15458;53.346;-1.688;2022-09-06T14:03:28;20.90;99.90
28171;DHT22;15458;53.346;-1.688;2022-09-06T14:05:56;20.90;99.90
28171;DHT22;15458;53.346;-1.688;2022-09-06T14:08:22;21.00;99.90
28171;DHT22;15458;53.346;-1.688;2022-09-06T14:10:52;21.10;99.90
28171;DHT22;15458;53.346;-1.688;2022-09-06T14:13:21;21.10;99.90
28171;DHT22;15458;53.346;-1.688;2022-09-06T14:16:00;21.00;99.90
28171;DHT22;15458;53.346;-1.688;2022-09-06T14:18:40;20.90;99.90
28171;DHT22;15458;53.346;-1.688;2022-09-06T14:21:09;21.00;99.90
28171;DHT22;15458;53.346;-1.688;2022-09-06T14:23:35;21.10;99.90
28171;DHT22;15458;53.346;-1.688;2022-09-06T14:26:03;21.30;99.90
28171;DHT22;15458;53.346;-1.688;2022-09-06T14:28:38;21.50;99.90
28171;DHT22;15458;53.346;-1.688;2022-09-06T14:31:22;21.60;99.90
28171;DHT22;15458;53.346;-1.688;2022-09-06T14:33:52;21.80;99.90
28171;DHT22;15458;53.346;-1.688;2022-09-06T14:36:20;21.80;99.90
28171;DHT22;15458;53.346;-1.688;2022-09-06T14:38:46;21.90;98.70
28171;DHT22;15458;53.346;-1.688;2022-09-06T14:41:14;21.80;97.50
28171;DHT22;15458;53.346;-1.688;2022-09-06T14:43:48;21.80;97.50
28171;DHT22;15458;53.346;-1.688;2022-09-06T14:46:15;21.70;97.20
28171;DHT22;15458;53.346;-1.688;2022-09-06T14:48:43;21.70;97.00
28171;DHT22;15458;53.346;-1.688;2022-09-06T14:51:18;21.80;96.80
28171;DHT22;15458;53.346;-1.688;2022-09-06T14:53:47;22.00;96.40
28171;DHT22;15458;53.346;-1.688;2022-09-06T14:56:14;22.20;96.10
28171;DHT22;15458;53.346;-1.688;2022-09-06T14:58:41;22.40;95.60
28171;DHT22;15458;53.346;-1.688;2022-09-06T15:01:21;22.60;95.00
28171;DHT22;15458;53.346;-1.688;2022-09-06T15:03:49;22.70;94.40
28171;DHT22;15458;53.346;-1.688;2022-09-06T15:06:17;22.50;93.80
28171;DHT22;15458;53.346;-1.688;2022-09-06T15:08:44;22.30;93.90
28171;DHT22;15458;53.346;-1.688;2022-09-06T15:11:10;22.00;93.90
28171;DHT22;15458;53.346;-1.688;2022-09-06T15:13:38;21.70;94.20
28171;DHT22;15458;53.346;-1.688;2022-09-06T15:16:06;21.50;94.30
28171;DHT22;15458;53.346;-1.688;2022-09-06T15:18:33;21.30;94.70
28171;DHT22;15458;53.346;-1.688;2022-09-06T15:21:13;21.10;95.10
28171;DHT22;15458;53.346;-1.688;2022-09-06T15:23:39;20.90;95.40
28171;DHT22;15458;53.346;-1.688;2022-09-06T15:26:06;20.80;95.80
28171;DHT22;15458;53.346;-1.688;2022-09-06T15:28:34;20.60;96.00
28171;DHT22;15458;53.346;-1.688;2022-09-06T15:31:00;20.60;96.40
28171;DHT22;15458;53.346;-1.688;2022-09-06T15:33:29;20.60;96.70
28171;DHT22;15458;53.346;-1.688;2022-09-06T15:35:55;20.80;97.00
28171;DHT22;15458;53.346;-1.688;2022-09-06T15:38:21;20.90;96.80
28171;DHT22;15458;53.346;-1.688;2022-09-06T15:40:47;21.10;96.70
28171;DHT22;15458;53.346;-1.688;2022-09-06T15:43:13;21.30;96.40
28171;DHT22;15458;53.346;-1.688;2022-09-06T15:45:49;21.50;96.00
28171;DHT22;15458;53.346;-1.688;2022-09-06T15:48:16;21.60;95.70
28171;DHT22;15458;53.346;-1.688;2022-09-06T15:50:43;21.70;95.50
28171;DHT22;15458;53.346;-1.688;2022-09-06T15:53:09;21.80;94.80
28171;DHT22;15458;53.346;-1.688;2022-09-06T15:55:35;21.70;94.40
28171;DHT22;15458;53.346;-1.688;2022-09-06T15:58:19;21.60;94.00
28171;DHT22;15458;53.346;-1.688;2022-09-06T16:00:45;21.40;93.90
28171;DHT22;15458;53.346;-1.688;2022-09-06T16:03:12;21.30;94.20
28171;DHT22;15458;53.346;-1.688;2022-09-06T16:05:38;21.10;94.50
28171;DHT22;15458;53.346;-1.688;2022-09-06T16:08:04;21.10;94.90
28171;DHT22;15458;53.346;-1.688;2022-09-06T16:10:29;21.00;95.30
28171;DHT22;15458;53.346;-1.688;2022-09-06T16:12:55;20.90;95.40
28171;DHT22;15458;53.346;-1.688;2022-09-06T16:15:21;20.80;95.50
28171;DHT22;15458;53.346;-1.688;2022-09-06T16:17:50;20.70;95.80
28171;DHT22;15458;53.346;-1.688;2022-09-06T16:23:17;20.60;96.20
28171;DHT22;15458;53.346;-1.688;2022-09-06T16:25:47;20.50;96.30
28171;DHT22;15458;53.346;-1.688;2022-09-06T16:28:16;20.50;96.20
28171;DHT22;15458;53.346;-1.688;2022-09-06T16:30:42;20.50;96.30
28171;DHT22;15458;53.346;-1.688;2022-09-06T16:33:09;20.50;96.40
28171;DHT22;15458;53.346;-1.688;2022-09-06T16:35:39;20.50;96.40
28171;DHT22;15458;53.346;-1.688;2022-09-06T16:38:06;20.60;96.40
28171;DHT22;15458;53.346;-1.688;2022-09-06T16:40:33;20.60;96.30
28171;DHT22;15458;53.346;-1.688;2022-09-06T16:42:59;20.60;96.40
28171;DHT22;15458;53.346;-1.688;2022-09-06T16:45:25;20.60;96.50
28171;DHT22;15458;53.346;-1.688;2022-09-06T16:47:51;20.60;96.60
28171;DHT22;15458;53.346;-1.688;2022-09-06T16:50:16;20.60;96.80
28171;DHT22;15458;53.346;-1.688;2022-09-06T16:52:42;20.60;96.90
28171;DHT22;15458;53.346;-1.688;2022-09-06T16:55:08;20.50;96.80
28171;DHT22;15458;53.346;-1.688;2022-09-06T16:57:33;20.50;96.60
28171;DHT22;15458;53.346;-1.688;2022-09-06T16:59:59;20.40;96.70
28171;DHT22;15458;53.346;-1.688;2022-09-06T17:02:25;20.30;97.00
28171;DHT22;15458;53.346;-1.688;2022-09-06T17:04:50;20.20;97.10
28171;DHT22;15458;53.346;-1.688;2022-09-06T17:07:18;20.20;97.40
28171;DHT22;15458;53.346;-1.688;2022-09-06T17:09:44;20.10;97.50
28171;DHT22;15458;53.346;-1.688;2022-09-06T17:12:10;20.10;97.60
28171;DHT22;15458;53.346;-1.688;2022-09-06T17:14:36;20.10;97.90
28171;DHT22;15458;53.346;-1.688;2022-09-06T17:17:02;20.10;98.20
28171;DHT22;15458;53.346;-1.688;2022-09-06T17:19:39;20.10;98.40
28171;DHT22;15458;53.346;-1.688;2022-09-06T17:22:09;20.10;98.40
28171;DHT22;15458;53.346;-1.688;2022-09-06T17:24:37;20.10;98.50
28171;DHT22;15458;53.346;-1.688;2022-09-06T17:27:04;20.00;98.50
28171;DHT22;15458;53.346;-1.688;2022-09-06T17:29:30;20.00;98.70
28171;DHT22;15458;53.346;-1.688;2022-09-06T17:31:58;19.90;99.10
28171;DHT22;15458;53.346;-1.688;2022-09-06T17:34:24;19.80;99.40